sensor_id;sensor_type;location;lat;lon;timestamp;P1;durP1;ratioP1;P2;durP2;ratioP2
50379;SDS011;37474;59.468;18.040;2023-08-20T00:00:16;4.75;;;3.85;;
50379;SDS011;37474;59.468;18.040;2023-08-20T00:02:46;6.57;;;3.90;;
50379;SDS011;37474;59.468;18.040;2023-08-20T00:05:20;4.78;;;3.97;;
50379;SDS011;37474;59.468;18.040;2023-08-20T00:07:49;4.40;;;3.78;;
50379;SDS011;37474;59.468;18.040;2023-08-20T00:10:17;3.95;;;3.55;;
50379;SDS011;37474;59.468;18.040;2023-08-20T00:12:46;5.18;;;3.50;;
50379;SDS011;37474;59.468;18.040;2023-08-20T00:15:14;4.68;;;3.10;;
50379;SDS011;37474;59.468;18.040;2023-08-20T00:17:43;5.75;;;3.42;;
50379;SDS011;37474;59.468;18.040;2023-08-20T00:20:13;3.97;;;3.33;;
50379;SDS011;37474;59.468;18.040;2023-08-20T00:22:45;3.90;;;3.50;;
50379;SDS011;37474;59.468;18.040;2023-08-20T00:25:14;4.63;;;3.50;;
50379;SDS011;37474;59.468;18.040;2023-08-20T00:27:44;7.55;;;3.60;;
50379;SDS011;37474;59.468;18.040;2023-08-20T00:30:13;4.53;;;3.72;;
50379;SDS011;37474;59.468;18.040;2023-08-20T00:32:41;4.15;;;3.72;;
50379;SDS011;37474;59.468;18.040;2023-08-20T00:35:10;6.07;;;4.75;;
50379;SDS011;37474;59.468;18.040;2023-08-20T00:37:38;5.10;;;4.40;;
50379;SDS011;37474;59.468;18.040;2023-08-20T00:40:09;4.93;;;4.43;;
50379;SDS011;37474;59.468;18.040;2023-08-20T00:42:38;4.72;;;4.22;;
50379;SDS011;37474;59.468;18.040;2023-08-20T00:45:07;7.05;;;4.43;;
50379;SDS011;37474;59.468;18.040;2023-08-20T00:47:36;4.27;;;3.83;;
50379;SDS011;37474;59.468;18.040;2023-08-20T00:50:06;8.67;;;4.13;;
50379;SDS011;37474;59.468;18.040;2023-08-20T00:52:35;5.63;;;4.38;;
50379;SDS011;37474;59.468;18.040;2023-08-20T00:55:06;6.15;;;4.10;;
50379;SDS011;37474;59.468;18.040;2023-08-20T00:57:37;5.63;;;3.95;;
50379;SDS011;37474;59.468;18.040;2023-08-20T01:00:07;4.78;;;4.00;;
50379;SDS011;37474;59.468;18.040;2023-08-20T01:02:38;6.47;;;3.80;;
50379;SDS011;37474;59.468;18.040;2023-08-20T01:07:40;5.85;;;4.45;;
50379;SDS011;37474;59.468;18.040;2023-08-20T01:10:19;4.80;;;3.45;;
50379;SDS011;37474;59.468;18.040;2023-08-20T01:12:56;7.03;;;3.75;;
50379;SDS011;37474;59.468;18.040;2023-08-20T01:15:25;4.75;;;3.80;;
50379;SDS011;37474;59.468;18.040;2023-08-20T01:17:54;4.55;;;3.70;;
50379;SDS011;37474;59.468;18.040;2023-08-20T01:20:24;5.40;;;3.33;;
50379;SDS011;37474;59.468;18.040;2023-08-20T01:26:10;4.57;;;3.78;;
50379;SDS011;37474;59.468;18.040;2023-08-20T01:28:51;6.60;;;4.32;;
50379;SDS011;37474;59.468;18.040;2023-08-20T01:33:48;5.60;;;3.78;;
50379;SDS011;37474;59.468;18.040;2023-08-20T01:36:17;6.00;;;4.25;;
50379;SDS011;37474;59.468;18.040;2023-08-20T01:38:46;5.03;;;4.53;;
50379;SDS011;37474;59.468;18.040;2023-08-20T01:41:14;7.05;;;4.68;;
50379;SDS011;37474;59.468;18.040;2023-08-20T01:43:43;7.15;;;4.13;;
50379;SDS011;37474;59.468;18.040;2023-08-20T01:46:13;6.20;;;4.72;;
50379;SDS011;37474;59.468;18.040;2023-08-20T01:48:41;7.70;;;4.32;;
50379;SDS011;37474;59.468;18.040;2023-08-20T01:51:10;5.95;;;4.63;;
50379;SDS011;37474;59.468;18.040;2023-08-20T01:53:38;5.65;;;4.75;;
50379;SDS011;37474;59.468;18.040;2023-08-20T01:56:10;5.18;;;4.47;;
50379;SDS011;37474;59.468;18.040;2023-08-20T01:58:39;6.78;;;4.18;;
50379;SDS011;37474;59.468;18.040;2023-08-20T02:01:08;6.03;;;4.30;;
50379;SDS011;37474;59.468;18.040;2023-08-20T02:03:38;7.95;;;4.65;;
50379;SDS011;37474;59.468;18.040;2023-08-20T02:06:07;6.28;;;4.70;;
50379;SDS011;37474;59.468;18.040;2023-08-20T02:08:35;6.40;;;4.57;;
50379;SDS011;37474;59.468;18.040;2023-08-20T02:11:04;7.00;;;5.07;;
50379;SDS011;37474;59.468;18.040;2023-08-20T02:13:32;7.32;;;5.25;;
50379;SDS011;37474;59.468;18.040;2023-08-20T02:16:01;9.20;;;6.05;;
50379;SDS011;37474;59.468;18.040;2023-08-20T02:18:31;9.43;;;5.78;;
50379;SDS011;37474;59.468;18.040;2023-08-20T02:21:01;10.57;;;5.90;;
50379;SDS011;37474;59.468;18.040;2023-08-20T02:23:29;9.82;;;6.40;;
50379;SDS011;37474;59.468;18.040;2023-08-20T02:25:58;9.45;;;6.28;;
50379;SDS011;37474;59.468;18.040;2023-08-20T02:28:27;8.63;;;6.18;;
50379;SDS011;37474;59.468;18.040;2023-08-20T02:30:56;7.25;;;5.88;;
50379;SDS011;37474;59.468;18.040;2023-08-20T02:33:26;6.63;;;5.22;;
50379;SDS011;37474;59.468;18.040;2023-08-20T02:35:55;9.85;;;6.00;;
50379;SDS011;37474;59.468;18.040;2023-08-20T02:38:29;6.82;;;5.10;;
50379;SDS011;37474;59.468;18.040;2023-08-20T02:40:58;7.50;;;5.28;;
50379;SDS011;37474;59.468;18.040;2023-08-20T02:43:27;6.22;;;4.65;;
50379;SDS011;37474;59.468;18.040;2023-08-20T02:45:55;4.95;;;4.45;;
50379;SDS011;37474;59.468;18.040;2023-08-20T02:48:24;6.18;;;4.63;;
50379;SDS011;37474;59.468;18.040;2023-08-20T02:50:54;8.20;;;5.40;;
50379;SDS011;37474;59.468;18.040;2023-08-20T02:53:22;6.57;;;5.32;;
50379;SDS011;37474;59.468;18.040;2023-08-20T02:55:52;7.60;;;5.30;;
50379;SDS011;37474;59.468;18.040;2023-08-20T02:58:21;6.43;;;5.15;;
50379;SDS011;37474;59.468;18.040;2023-08-20T03:00:49;8.30;;;5.53;;
50379;SDS011;37474;59.468;18.040;2023-08-20T03:03:18;6.53;;;5.13;;
50379;SDS011;37474;59.468;18.040;2023-08-20T03:05:47;6.50;;;5.80;;
50379;SDS011;37474;59.468;18.040;2023-08-20T03:08:15;6.30;;;5.70;;
50379;SDS011;37474;59.468;18.040;2023-08-20T03:10:43;6.32;;;5.50;;
50379;SDS011;37474;59.468;18.040;2023-08-20T03:13:13;8.07;;;5.47;;
50379;SDS011;37474;59.468;18.040;2023-08-20T03:15:42;9.40;;;5.18;;
50379;SDS011;37474;59.468;18.040;2023-08-20T03:18:11;11.63;;;5.60;;
50379;SDS011;37474;59.468;18.040;2023-08-20T03:20:39;8.73;;;6.20;;
50379;SDS011;37474;59.468;18.040;2023-08-20T03:23:08;8.02;;;5.55;;
50379;SDS011;37474;59.468;18.040;2023-08-20T03:25:36;13.07;;;6.07;;
50379;SDS011;37474;59.468;18.040;2023-08-20T03:28:06;10.40;;;6.57;;
50379;SDS011;37474;59.468;18.040;2023-08-20T03:30:37;9.52;;;6.43;;
50379;SDS011;37474;59.468;18.040;2023-08-20T03:33:06;9.93;;;6.88;;
50379;SDS011;37474;59.468;18.040;2023-08-20T03:35:34;11.07;;;7.45;;
50379;SDS011;37474;59.468;18.040;2023-08-20T03:38:03;12.88;;;7.30;;
50379;SDS011;37474;59.468;18.040;2023-08-20T03:40:31;10.35;;;6.38;;
50379;SDS011;37474;59.468;18.040;2023-08-20T03:43:00;8.25;;;5.93;;
50379;SDS011;37474;59.468;18.040;2023-08-20T03:45:28;7.65;;;5.93;;
50379;SDS011;37474;59.468;18.040;2023-08-20T03:47:59;8.40;;;5.82;;
50379;SDS011;37474;59.468;18.040;2023-08-20T03:50:27;8.70;;;6.35;;
50379;SDS011;37474;59.468;18.040;2023-08-20T03:52:56;6.55;;;5.68;;
50379;SDS011;37474;59.468;18.040;2023-08-20T03:55:24;9.38;;;6.47;;
50379;SDS011;37474;59.468;18.040;2023-08-20T03:57:53;7.35;;;6.03;;
50379;SDS011;37474;59.468;18.040;2023-08-20T04:00:21;8.02;;;6.53;;
50379;SDS011;37474;59.468;18.040;2023-08-20T04:02:50;7.45;;;6.00;;
50379;SDS011;37474;59.468;18.040;2023-08-20T04:05:20;9.00;;;6.28;;
50379;SDS011;37474;59.468;18.040;2023-08-20T04:07:48;8.98;;;5.68;;
50379;SDS011;37474;59.468;18.040;2023-08-20T04:10:17;7.75;;;5.38;;
50379;SDS011;37474;59.468;18.040;2023-08-20T04:12:45;6.38;;;4.90;;
50379;SDS011;37474;59.468;18.040;2023-08-20T04:15:14;5.85;;;5.10;;
50379;SDS011;37474;59.468;18.040;2023-08-20T04:17:42;5.68;;;4.60;;
50379;SDS011;37474;59.468;18.040;2023-08-20T04:20:12;4.45;;;4.00;;
50379;SDS011;37474;59.468;18.040;2023-08-20T04:22:42;6.22;;;4.55;;
50379;SDS011;37474;59.468;18.040;2023-08-20T04:25:10;4.18;;;3.75;;
50379;SDS011;37474;59.468;18.040;2023-08-20T04:27:39;4.47;;;4.07;;
50379;SDS011;37474;59.468;18.040;2023-08-20T04:30:08;5.57;;;4.00;;
50379;SDS011;37474;59.468;18.040;2023-08-20T04:32:38;5.78;;;3.75;;
50379;SDS011;37474;59.468;18.040;2023-08-20T04:35:07;4.47;;;3.60;;
50379;SDS011;37474;59.468;18.040;2023-08-20T04:37:36;5.63;;;3.63;;
50379;SDS011;37474;59.468;18.040;2023-08-20T04:40:07;4.57;;;3.63;;
50379;SDS011;37474;59.468;18.040;2023-08-20T04:42:36;5.35;;;3.63;;
50379;SDS011;37474;59.468;18.040;2023-08-20T04:45:05;4.13;;;3.60;;
50379;SDS011;37474;59.468;18.040;2023-08-20T04:47:35;5.40;;;4.30;;
50379;SDS011;37474;59.468;18.040;2023-08-20T04:50:04;4.33;;;3.13;;
50379;SDS011;37474;59.468;18.040;2023-08-20T04:52:34;5.93;;;3.58;;
50379;SDS011;37474;59.468;18.040;2023-08-20T04:55:03;3.30;;;3.00;;
50379;SDS011;37474;59.468;18.040;2023-08-20T04:57:34;4.55;;;3.45;;
50379;SDS011;37474;59.468;18.040;2023-08-20T05:00:04;4.65;;;3.47;;
50379;SDS011;37474;59.468;18.040;2023-08-20T05:02:33;5.25;;;3.08;;
50379;SDS011;37474;59.468;18.040;2023-08-20T05:05:02;4.10;;;3.42;;
50379;SDS011;37474;59.468;18.040;2023-08-20T05:07:31;4.00;;;3.10;;
50379;SDS011;37474;59.468;18.040;2023-08-20T05:09:59;4.65;;;3.15;;
50379;SDS011;37474;59.468;18.040;2023-08-20T05:12:29;3.67;;;3.20;;
50379;SDS011;37474;59.468;18.040;2023-08-20T05:14:59;4.30;;;2.70;;
50379;SDS011;37474;59.468;18.040;2023-08-20T05:17:27;3.90;;;2.80;;
50379;SDS011;37474;59.468;18.040;2023-08-20T05:19:56;3.78;;;2.33;;
50379;SDS011;37474;59.468;18.040;2023-08-20T05:22:24;3.42;;;2.58;;
50379;SDS011;37474;59.468;18.040;2023-08-20T05:24:52;3.03;;;2.33;;
50379;SDS011;37474;59.468;18.040;2023-08-20T05:27:21;3.60;;;2.40;;
50379;SDS011;37474;59.468;18.040;2023-08-20T05:29:49;3.42;;;2.28;;
50379;SDS011;37474;59.468;18.040;2023-08-20T05:32:19;3.63;;;2.38;;
50379;SDS011;37474;59.468;18.040;2023-08-20T05:34:48;3.15;;;2.28;;
50379;SDS011;37474;59.468;18.040;2023-08-20T05:37:16;3.90;;;2.22;;
50379;SDS011;37474;59.468;18.040;2023-08-20T05:39:45;3.75;;;2.28;;
50379;SDS011;37474;59.468;18.040;2023-08-20T05:42:13;2.72;;;1.90;;
50379;SDS011;37474;59.468;18.040;2023-08-20T05:44:42;2.88;;;2.20;;
50379;SDS011;37474;59.468;18.040;2023-08-20T05:47:10;3.30;;;2.17;;
50379;SDS011;37474;59.468;18.040;2023-08-20T05:49:40;4.60;;;1.90;;
50379;SDS011;37474;59.468;18.040;2023-08-20T05:52:09;3.85;;;1.92;;
50379;SDS011;37474;59.468;18.040;2023-08-20T05:54:37;2.83;;;1.75;;
50379;SDS011;37474;59.468;18.040;2023-08-20T05:57:06;2.42;;;1.95;;
50379;SDS011;37474;59.468;18.040;2023-08-20T05:59:34;3.78;;;1.90;;
50379;SDS011;37474;59.468;18.040;2023-08-20T06:02:03;3.72;;;2.03;;
50379;SDS011;37474;59.468;18.040;2023-08-20T06:04:31;3.22;;;2.03;;
50379;SDS011;37474;59.468;18.040;2023-08-20T06:07:01;5.88;;;1.92;;
50379;SDS011;37474;59.468;18.040;2023-08-20T06:09:30;2.22;;;1.92;;
50379;SDS011;37474;59.468;18.040;2023-08-20T06:11:58;1.92;;;1.75;;
50379;SDS011;37474;59.468;18.040;2023-08-20T06:14:27;3.40;;;1.70;;
50379;SDS011;37474;59.468;18.040;2023-08-20T06:16:55;2.00;;;1.60;;
50379;SDS011;37474;59.468;18.040;2023-08-20T06:19:24;2.13;;;1.70;;
50379;SDS011;37474;59.468;18.040;2023-08-20T06:21:52;3.70;;;1.65;;
50379;SDS011;37474;59.468;18.040;2023-08-20T06:24:22;3.08;;;1.83;;
50379;SDS011;37474;59.468;18.040;2023-08-20T06:26:51;2.15;;;1.55;;
50379;SDS011;37474;59.468;18.040;2023-08-20T06:29:20;7.72;;;2.00;;
50379;SDS011;37474;59.468;18.040;2023-08-20T06:31:49;2.35;;;1.45;;
50379;SDS011;37474;59.468;18.040;2023-08-20T06:34:18;2.25;;;1.60;;
50379;SDS011;37474;59.468;18.040;2023-08-20T06:36:47;3.00;;;1.60;;
50379;SDS011;37474;59.468;18.040;2023-08-20T06:39:16;4.15;;;1.70;;
50379;SDS011;37474;59.468;18.040;2023-08-20T06:41:47;3.35;;;1.38;;
50379;SDS011;37474;59.468;18.040;2023-08-20T06:44:16;2.72;;;1.60;;
50379;SDS011;37474;59.468;18.040;2023-08-20T06:46:44;1.92;;;1.65;;
50379;SDS011;37474;59.468;18.040;2023-08-20T06:49:13;2.97;;;1.63;;
50379;SDS011;37474;59.468;18.040;2023-08-20T06:51:42;3.15;;;1.50;;
50379;SDS011;37474;59.468;18.040;2023-08-20T06:54:10;4.43;;;1.77;;
50379;SDS011;37474;59.468;18.040;2023-08-20T06:56:39;2.45;;;1.48;;
50379;SDS011;37474;59.468;18.040;2023-08-20T06:59:09;2.25;;;1.70;;
50379;SDS011;37474;59.468;18.040;2023-08-20T07:04:06;4.43;;;2.50;;
50379;SDS011;37474;59.468;18.040;2023-08-20T07:06:34;3.88;;;2.10;;
50379;SDS011;37474;59.468;18.040;2023-08-20T07:09:03;2.72;;;1.60;;
50379;SDS011;37474;59.468;18.040;2023-08-20T07:11:31;2.03;;;1.70;;
50379;SDS011;37474;59.468;18.040;2023-08-20T07:14:00;1.95;;;1.67;;
50379;SDS011;37474;59.468;18.040;2023-08-20T07:16:30;3.90;;;1.83;;
50379;SDS011;37474;59.468;18.040;2023-08-20T07:18:59;2.75;;;1.80;;
50379;SDS011;37474;59.468;18.040;2023-08-20T07:21:27;3.65;;;1.60;;
50379;SDS011;37474;59.468;18.040;2023-08-20T07:23:56;3.28;;;1.63;;
50379;SDS011;37474;59.468;18.040;2023-08-20T07:26:25;2.55;;;1.25;;
50379;SDS011;37474;59.468;18.040;2023-08-20T07:28:53;2.75;;;1.30;;
50379;SDS011;37474;59.468;18.040;2023-08-20T07:31:25;2.10;;;1.58;;
50379;SDS011;37474;59.468;18.040;2023-08-20T07:33:56;2.58;;;1.70;;
50379;SDS011;37474;59.468;18.040;2023-08-20T07:36:30;2.67;;;1.50;;
50379;SDS011;37474;59.468;18.040;2023-08-20T07:38:59;2.03;;;1.30;;
50379;SDS011;37474;59.468;18.040;2023-08-20T07:41:28;2.57;;;1.60;;
50379;SDS011;37474;59.468;18.040;2023-08-20T07:43:57;2.00;;;1.50;;
50379;SDS011;37474;59.468;18.040;2023-08-20T07:46:26;1.80;;;1.13;;
50379;SDS011;37474;59.468;18.040;2023-08-20T07:48:56;1.58;;;1.23;;
50379;SDS011;37474;59.468;18.040;2023-08-20T07:51:24;1.65;;;1.17;;
50379;SDS011;37474;59.468;18.040;2023-08-20T07:53:53;2.17;;;1.23;;
50379;SDS011;37474;59.468;18.040;2023-08-20T07:56:21;3.40;;;1.52;;
50379;SDS011;37474;59.468;18.040;2023-08-20T07:58:50;3.15;;;1.33;;
50379;SDS011;37474;59.468;18.040;2023-08-20T08:01:18;3.72;;;1.35;;
50379;SDS011;37474;59.468;18.040;2023-08-20T08:03:47;3.58;;;1.27;;
50379;SDS011;37474;59.468;18.040;2023-08-20T08:06:17;4.53;;;1.20;;
50379;SDS011;37474;59.468;18.040;2023-08-20T08:08:48;1.30;;;1.20;;
50379;SDS011;37474;59.468;18.040;2023-08-20T08:11:16;3.42;;;1.50;;
50379;SDS011;37474;59.468;18.040;2023-08-20T08:13:45;2.05;;;1.30;;
50379;SDS011;37474;59.468;18.040;2023-08-20T08:16:13;1.23;;;1.00;;
50379;SDS011;37474;59.468;18.040;2023-08-20T08:18:42;3.00;;;1.20;;
50379;SDS011;37474;59.468;18.040;2023-08-20T08:21:10;2.08;;;1.30;;
50379;SDS011;37474;59.468;18.040;2023-08-20T08:23:40;4.00;;;1.40;;
50379;SDS011;37474;59.468;18.040;2023-08-20T08:26:09;3.97;;;1.30;;
50379;SDS011;37474;59.468;18.040;2023-08-20T08:28:37;6.15;;;1.40;;
50379;SDS011;37474;59.468;18.040;2023-08-20T08:31:06;2.05;;;1.38;;
50379;SDS011;37474;59.468;18.040;2023-08-20T08:33:34;3.25;;;1.65;;
50379;SDS011;37474;59.468;18.040;2023-08-20T08:36:03;2.55;;;1.50;;
50379;SDS011;37474;59.468;18.040;2023-08-20T08:38:32;2.17;;;1.42;;
50379;SDS011;37474;59.468;18.040;2023-08-20T08:41:02;2.42;;;1.40;;
50379;SDS011;37474;59.468;18.040;2023-08-20T08:43:37;2.08;;;1.50;;
50379;SDS011;37474;59.468;18.040;2023-08-20T08:46:06;3.10;;;1.33;;
50379;SDS011;37474;59.468;18.040;2023-08-20T08:48:42;1.90;;;1.40;;
50379;SDS011;37474;59.468;18.040;2023-08-20T08:51:11;3.40;;;1.52;;
50379;SDS011;37474;59.468;18.040;2023-08-20T08:53:41;4.88;;;1.77;;
50379;SDS011;37474;59.468;18.040;2023-08-20T08:56:12;1.65;;;1.40;;
50379;SDS011;37474;59.468;18.040;2023-08-20T08:58:41;2.15;;;1.30;;
50379;SDS011;37474;59.468;18.040;2023-08-20T09:01:10;1.70;;;1.60;;
50379;SDS011;37474;59.468;18.040;2023-08-20T09:03:38;3.22;;;1.88;;
50379;SDS011;37474;59.468;18.040;2023-08-20T09:06:08;4.68;;;1.45;;
50379;SDS011;37474;59.468;18.040;2023-08-20T09:11:05;3.78;;;1.73;;
50379;SDS011;37474;59.468;18.040;2023-08-20T09:13:36;2.75;;;1.55;;
50379;SDS011;37474;59.468;18.040;2023-08-20T09:16:06;3.45;;;1.70;;
50379;SDS011;37474;59.468;18.040;2023-08-20T09:18:37;3.28;;;1.83;;
50379;SDS011;37474;59.468;18.040;2023-08-20T09:21:07;3.70;;;1.80;;
50379;SDS011;37474;59.468;18.040;2023-08-20T09:23:36;5.00;;;2.03;;
50379;SDS011;37474;59.468;18.040;2023-08-20T09:26:06;2.60;;;1.88;;
50379;SDS011;37474;59.468;18.040;2023-08-20T09:28:41;3.50;;;1.70;;
50379;SDS011;37474;59.468;18.040;2023-08-20T09:31:11;3.38;;;1.63;;
50379;SDS011;37474;59.468;18.040;2023-08-20T09:33:48;3.70;;;1.83;;
50379;SDS011;37474;59.468;18.040;2023-08-20T09:36:18;3.92;;;2.10;;
50379;SDS011;37474;59.468;18.040;2023-08-20T09:38:48;2.92;;;1.77;;
50379;SDS011;37474;59.468;18.040;2023-08-20T09:41:19;2.88;;;1.90;;
50379;SDS011;37474;59.468;18.040;2023-08-20T09:43:53;3.17;;;2.05;;
50379;SDS011;37474;59.468;18.040;2023-08-20T09:46:27;3.72;;;1.95;;
50379;SDS011;37474;59.468;18.040;2023-08-20T09:48:59;3.30;;;2.20;;
50379;SDS011;37474;59.468;18.040;2023-08-20T09:51:28;2.30;;;1.77;;
50379;SDS011;37474;59.468;18.040;2023-08-20T09:54:02;3.03;;;2.10;;
50379;SDS011;37474;59.468;18.040;2023-08-20T09:56:40;2.22;;;1.90;;
50379;SDS011;37474;59.468;18.040;2023-08-20T09:59:12;3.85;;;2.10;;
50379;SDS011;37474;59.468;18.040;2023-08-20T10:01:44;3.42;;;2.00;;
50379;SDS011;37474;59.468;18.040;2023-08-20T10:06:43;3.30;;;1.85;;
50379;SDS011;37474;59.468;18.040;2023-08-20T10:09:12;2.33;;;1.80;;
50379;SDS011;37474;59.468;18.040;2023-08-20T10:11:40;3.13;;;1.77;;
50379;SDS011;37474;59.468;18.040;2023-08-20T10:14:09;2.58;;;2.00;;
50379;SDS011;37474;59.468;18.040;2023-08-20T10:16:39;2.60;;;1.73;;
50379;SDS011;37474;59.468;18.040;2023-08-20T10:21:36;2.10;;;1.52;;
50379;SDS011;37474;59.468;18.040;2023-08-20T10:24:16;2.13;;;1.67;;
50379;SDS011;37474;59.468;18.040;2023-08-20T10:26:46;2.33;;;1.60;;
50379;SDS011;37474;59.468;18.040;2023-08-20T10:32:08;1.88;;;1.60;;
50379;SDS011;37474;59.468;18.040;2023-08-20T10:34:37;2.75;;;1.50;;
50379;SDS011;37474;59.468;18.040;2023-08-20T10:37:10;2.08;;;1.60;;
50379;SDS011;37474;59.468;18.040;2023-08-20T10:39:40;2.50;;;1.58;;
50379;SDS011;37474;59.468;18.040;2023-08-20T10:42:21;2.42;;;1.55;;
50379;SDS011;37474;59.468;18.040;2023-08-20T10:44:56;2.22;;;1.50;;
50379;SDS011;37474;59.468;18.040;2023-08-20T10:47:29;3.97;;;1.23;;
50379;SDS011;37474;59.468;18.040;2023-08-20T10:50:04;4.32;;;2.30;;
50379;SDS011;37474;59.468;18.040;2023-08-20T10:52:38;2.05;;;1.40;;
50379;SDS011;37474;59.468;18.040;2023-08-20T10:55:07;2.92;;;1.80;;
50379;SDS011;37474;59.468;18.040;2023-08-20T10:57:36;3.05;;;1.58;;
50379;SDS011;37474;59.468;18.040;2023-08-20T11:00:05;2.28;;;1.55;;
50379;SDS011;37474;59.468;18.040;2023-08-20T11:02:39;1.83;;;1.48;;
50379;SDS011;37474;59.468;18.040;2023-08-20T11:05:15;2.70;;;1.75;;
50379;SDS011;37474;59.468;18.040;2023-08-20T11:07:45;2.03;;;1.70;;
50379;SDS011;37474;59.468;18.040;2023-08-20T11:10:16;2.72;;;1.40;;
50379;SDS011;37474;59.468;18.040;2023-08-20T11:12:45;2.83;;;1.60;;
50379;SDS011;37474;59.468;18.040;2023-08-20T11:15:14;2.63;;;1.50;;
50379;SDS011;37474;59.468;18.040;2023-08-20T11:17:45;2.22;;;1.70;;
50379;SDS011;37474;59.468;18.040;2023-08-20T11:20:17;3.97;;;1.80;;
50379;SDS011;37474;59.468;18.040;2023-08-20T11:22:45;2.00;;;1.48;;
50379;SDS011;37474;59.468;18.040;2023-08-20T11:25:14;2.70;;;1.50;;
50379;SDS011;37474;59.468;18.040;2023-08-20T11:27:43;2.58;;;1.52;;
50379;SDS011;37474;59.468;18.040;2023-08-20T11:30:12;2.15;;;1.48;;
50379;SDS011;37474;59.468;18.040;2023-08-20T11:32:40;2.03;;;1.83;;
50379;SDS011;37474;59.468;18.040;2023-08-20T11:35:12;2.85;;;1.80;;
50379;SDS011;37474;59.468;18.040;2023-08-20T11:37:41;3.15;;;1.63;;
50379;SDS011;37474;59.468;18.040;2023-08-20T11:40:11;5.40;;;2.17;;
50379;SDS011;37474;59.468;18.040;2023-08-20T11:42:39;3.92;;;1.90;;
50379;SDS011;37474;59.468;18.040;2023-08-20T11:45:09;1.77;;;1.63;;
50379;SDS011;37474;59.468;18.040;2023-08-20T11:47:39;5.10;;;1.90;;
50379;SDS011;37474;59.468;18.040;2023-08-20T11:50:08;1.90;;;1.77;;
50379;SDS011;37474;59.468;18.040;2023-08-20T11:52:39;1.90;;;1.80;;
50379;SDS011;37474;59.468;18.040;2023-08-20T11:55:07;4.72;;;1.98;;
50379;SDS011;37474;59.468;18.040;2023-08-20T11:57:37;3.27;;;1.90;;
50379;SDS011;37474;59.468;18.040;2023-08-20T12:00:06;2.10;;;1.75;;
50379;SDS011;37474;59.468;18.040;2023-08-20T12:02:40;3.30;;;1.95;;
50379;SDS011;37474;59.468;18.040;2023-08-20T12:05:09;2.43;;;1.80;;
50379;SDS011;37474;59.468;18.040;2023-08-20T12:07:39;2.30;;;1.90;;
50379;SDS011;37474;59.468;18.040;2023-08-20T12:10:19;2.63;;;1.67;;
50379;SDS011;37474;59.468;18.040;2023-08-20T12:12:49;2.72;;;1.70;;
50379;SDS011;37474;59.468;18.040;2023-08-20T12:15:18;3.25;;;1.50;;
50379;SDS011;37474;59.468;18.040;2023-08-20T12:17:57;3.37;;;1.83;;
50379;SDS011;37474;59.468;18.040;2023-08-20T12:20:32;2.47;;;1.52;;
50379;SDS011;37474;59.468;18.040;2023-08-20T12:23:03;3.17;;;1.85;;
50379;SDS011;37474;59.468;18.040;2023-08-20T12:25:34;2.53;;;1.75;;
50379;SDS011;37474;59.468;18.040;2023-08-20T12:30:32;3.50;;;2.00;;
50379;SDS011;37474;59.468;18.040;2023-08-20T12:33:05;2.80;;;2.10;;
50379;SDS011;37474;59.468;18.040;2023-08-20T12:35:34;2.45;;;1.83;;
50379;SDS011;37474;59.468;18.040;2023-08-20T12:38:05;3.20;;;2.08;;
50379;SDS011;37474;59.468;18.040;2023-08-20T12:40:34;3.20;;;1.92;;
50379;SDS011;37474;59.468;18.040;2023-08-20T12:43:03;3.35;;;2.00;;
50379;SDS011;37474;59.468;18.040;2023-08-20T12:45:32;2.75;;;2.00;;
50379;SDS011;37474;59.468;18.040;2023-08-20T12:48:00;2.85;;;2.17;;
50379;SDS011;37474;59.468;18.040;2023-08-20T12:50:30;3.65;;;2.50;;
50379;SDS011;37474;59.468;18.040;2023-08-20T12:52:59;2.45;;;2.25;;
50379;SDS011;37474;59.468;18.040;2023-08-20T12:55:29;3.78;;;2.28;;
50379;SDS011;37474;59.468;18.040;2023-08-20T12:57:57;2.80;;;2.30;;
50379;SDS011;37474;59.468;18.040;2023-08-20T13:00:26;2.85;;;2.13;;
50379;SDS011;37474;59.468;18.040;2023-08-20T13:02:55;3.65;;;2.13;;
50379;SDS011;37474;59.468;18.040;2023-08-20T13:05:25;3.10;;;2.00;;
50379;SDS011;37474;59.468;18.040;2023-08-20T13:07:54;3.83;;;2.28;;
50379;SDS011;37474;59.468;18.040;2023-08-20T13:10:23;3.45;;;2.25;;
50379;SDS011;37474;59.468;18.040;2023-08-20T13:12:58;3.05;;;2.00;;
50379;SDS011;37474;59.468;18.040;2023-08-20T13:15:29;2.78;;;2.53;;
50379;SDS011;37474;59.468;18.040;2023-08-20T13:18:01;3.13;;;2.10;;
50379;SDS011;37474;59.468;18.040;2023-08-20T13:20:30;3.55;;;2.35;;
50379;SDS011;37474;59.468;18.040;2023-08-20T13:22:59;4.60;;;2.60;;
50379;SDS011;37474;59.468;18.040;2023-08-20T13:25:27;3.65;;;2.60;;
50379;SDS011;37474;59.468;18.040;2023-08-20T13:27:57;4.57;;;2.72;;
50379;SDS011;37474;59.468;18.040;2023-08-20T13:30:26;3.22;;;2.38;;
50379;SDS011;37474;59.468;18.040;2023-08-20T13:32:54;2.63;;;2.40;;
50379;SDS011;37474;59.468;18.040;2023-08-20T13:35:23;4.50;;;2.40;;
50379;SDS011;37474;59.468;18.040;2023-08-20T13:37:52;4.35;;;2.50;;
50379;SDS011;37474;59.468;18.040;2023-08-20T13:40:20;3.90;;;2.25;;
50379;SDS011;37474;59.468;18.040;2023-08-20T13:42:49;3.22;;;2.50;;
50379;SDS011;37474;59.468;18.040;2023-08-20T13:45:19;3.15;;;2.15;;
50379;SDS011;37474;59.468;18.040;2023-08-20T13:47:48;3.95;;;2.55;;
50379;SDS011;37474;59.468;18.040;2023-08-20T13:50:17;3.28;;;2.60;;
50379;SDS011;37474;59.468;18.040;2023-08-20T13:52:45;4.53;;;2.83;;
50379;SDS011;37474;59.468;18.040;2023-08-20T13:55:14;3.30;;;2.38;;
50379;SDS011;37474;59.468;18.040;2023-08-20T13:57:43;4.75;;;2.55;;
50379;SDS011;37474;59.468;18.040;2023-08-20T14:00:12;2.90;;;2.60;;
50379;SDS011;37474;59.468;18.040;2023-08-20T14:02:42;3.13;;;2.63;;
50379;SDS011;37474;59.468;18.040;2023-08-20T14:05:11;3.67;;;2.67;;
50379;SDS011;37474;59.468;18.040;2023-08-20T14:07:39;3.88;;;2.80;;
50379;SDS011;37474;59.468;18.040;2023-08-20T14:10:08;5.43;;;2.70;;
50379;SDS011;37474;59.468;18.040;2023-08-20T14:12:38;3.95;;;2.65;;
50379;SDS011;37474;59.468;18.040;2023-08-20T14:15:08;4.50;;;3.40;;
50379;SDS011;37474;59.468;18.040;2023-08-20T14:17:37;4.03;;;3.20;;
50379;SDS011;37474;59.468;18.040;2023-08-20T14:20:07;5.28;;;3.30;;
50379;SDS011;37474;59.468;18.040;2023-08-20T14:22:37;3.97;;;3.20;;
50379;SDS011;37474;59.468;18.040;2023-08-20T14:25:06;4.32;;;3.10;;
50379;SDS011;37474;59.468;18.040;2023-08-20T14:27:36;4.07;;;3.45;;
50379;SDS011;37474;59.468;18.040;2023-08-20T14:30:05;6.50;;;3.70;;
50379;SDS011;37474;59.468;18.040;2023-08-20T14:32:37;4.82;;;3.28;;
50379;SDS011;37474;59.468;18.040;2023-08-20T14:35:09;5.70;;;3.58;;
50379;SDS011;37474;59.468;18.040;2023-08-20T14:37:37;7.40;;;3.67;;
50379;SDS011;37474;59.468;18.040;2023-08-20T14:40:06;4.15;;;3.60;;
50379;SDS011;37474;59.468;18.040;2023-08-20T14:42:38;5.43;;;3.40;;
50379;SDS011;37474;59.468;18.040;2023-08-20T14:45:08;6.05;;;3.60;;
50379;SDS011;37474;59.468;18.040;2023-08-20T14:47:37;4.03;;;3.30;;
50379;SDS011;37474;59.468;18.040;2023-08-20T14:50:06;5.22;;;3.72;;
50379;SDS011;37474;59.468;18.040;2023-08-20T14:52:37;5.32;;;3.88;;
50379;SDS011;37474;59.468;18.040;2023-08-20T14:55:06;4.90;;;3.40;;
50379;SDS011;37474;59.468;18.040;2023-08-20T15:02:45;4.13;;;3.72;;
50379;SDS011;37474;59.468;18.040;2023-08-20T15:05:15;7.07;;;3.97;;
50379;SDS011;37474;59.468;18.040;2023-08-20T15:10:12;6.20;;;4.18;;
50379;SDS011;37474;59.468;18.040;2023-08-20T15:12:41;4.68;;;4.13;;
50379;SDS011;37474;59.468;18.040;2023-08-20T15:15:10;4.53;;;4.13;;
50379;SDS011;37474;59.468;18.040;2023-08-20T15:17:38;8.93;;;4.50;;